Time;durP1;ratioP1;P1;durP2;ratioP2;P2;SDS_P1;SDS_P2;PMS_P1;PMS_P2;Temp;Humidity;BMP_temperature;BMP_pressure;BME280_temperature;BME280_humidity;BME280_pressure;Samples;Min_cycle;Max_cycle;Signal;HPM_P1;HPM_P2
2021/08/09 00:02:08;;;;;;;3.35;2.40;;;13.70;88.80;;;;;;4971559;28;20479;-68
2021/08/09 00:04:35;;;;;;;3.58;2.55;;;13.70;88.90;;;;;;4960539;28;20058;-69
2021/08/09 00:07:01;;;;;;;4.70;2.60;;;13.70;89.00;;;;;;4951703;28;20142;-68
2021/08/09 00:09:27;;;;;;;5.40;2.60;;;13.70;88.90;;;;;;4949588;28;20019;-68
2021/08/09 00:11:53;;;;;;;4.68;3.25;;;13.70;88.90;;;;;;4971449;28;20046;-68
2021/08/09 00:14:18;;;;;;;2.92;2.55;;;13.70;88.90;;;;;;4964155;28;20023;-70
2021/08/09 00:16:44;;;;;;;3.47;2.65;;;13.70;89.00;;;;;;4951160;29;20038;-68
2021/08/09 00:19:09;;;;;;;2.95;2.45;;;13.60;89.10;;;;;;4965629;28;20023;-67
2021/08/09 00:21:35;;;;;;;3.22;2.35;;;13.60;89.30;;;;;;4954184;28;20466;-68
2021/08/09 00:24:01;;;;;;;3.90;2.40;;;13.60;89.30;;;;;;4964248;28;20084;-69
2021/08/09 00:26:29;;;;;;;3.40;2.60;;;13.60;89.30;;;;;;4969874;28;20518;-72
2021/08/09 00:28:55;;;;;;;4.32;2.80;;;13.60;89.20;;;;;;4970657;28;20119;-70
2021/08/09 00:31:21;;;;;;;4.80;2.70;;;13.60;89.30;;;;;;4961248;28;20499;-69
2021/08/09 00:33:46;;;;;;;2.42;2.22;;;13.60;89.40;;;;;;4961848;28;20031;-67
2021/08/09 00:36:12;;;;;;;4.03;2.58;;;13.60;89.50;;;;;;4952781;28;20121;-67
2021/08/09 00:38:37;;;;;;;3.30;2.78;;;13.60;89.50;;;;;;4965820;28;20030;-68
2021/08/09 00:41:03;;;;;;;4.97;2.67;;;13.60;89.60;;;;;;4971071;28;20498;-70
2021/08/09 00:43:29;;;;;;;5.82;2.58;;;13.60;89.60;;;;;;4966881;28;20033;-67
2021/08/09 00:45:56;;;;;;;2.95;2.30;;;13.60;89.60;;;;;;4983885;28;20066;-67
2021/08/09 00:48:24;;;;;;;2.58;2.30;;;13.60;89.60;;;;;;4977387;28;20027;-68
2021/08/09 00:50:50;;;;;;;3.67;2.50;;;13.60;89.70;;;;;;4963798;28;20026;-68
2021/08/09 00:53:15;;;;;;;3.60;2.60;;;13.60;89.80;;;;;;4971077;28;20027;-71
2021/08/09 00:55:42;;;;;;;4.10;2.45;;;13.60;89.80;;;;;;4963476;28;20403;-67
2021/08/09 00:58:09;;;;;;;4.25;2.40;;;13.60;89.90;;;;;;4974029;28;20034;-69
2021/08/09 01:00:34;;;;;;;3.55;2.50;;;13.50;89.90;;;;;;4955675;28;20019;-68
2021/08/09 01:03:00;;;;;;;4.15;2.47;;;13.50;89.80;;;;;;4959808;28;20102;-68
2021/08/09 01:05:25;;;;;;;3.45;2.28;;;13.50;89.80;;;;;;4955353;28;20035;-71
2021/08/09 01:08:32;;;;;;;2.83;2.25;;;13.50;89.80;;;;;;4940561;28;20031;-67
2021/08/09 01:11:19;;;;;;;3.83;2.20;;;13.50;90.00;;;;;;4973600;28;20444;-68
2021/08/09 01:14:01;;;;;;;3.90;2.08;;;13.40;90.00;;;;;;4963989;28;20510;-68
2021/08/09 01:16:31;;;;;;;3.03;1.83;;;13.40;90.00;;;;;;4954084;29;20239;-68
2021/08/09 01:19:00;;;;;;;2.28;1.92;;;13.40;90.20;;;;;;4966971;28;20023;-68
2021/08/09 01:21:32;;;;;;;2.63;2.20;;;13.30;90.00;;;;;;4974121;28;20539;-68
2021/08/09 01:24:09;;;;;;;3.22;2.30;;;13.30;90.00;;;;;;4959376;28;20163;-68
2021/08/09 01:26:53;;;;;;;2.85;2.47;;;13.20;90.10;;;;;;4953694;28;20387;-68
2021/08/09 01:29:29;;;;;;;2.35;2.00;;;13.20;90.10;;;;;;4955758;28;20082;-68
2021/08/09 01:31:55;;;;;;;2.70;2.00;;;13.20;90.20;;;;;;4965899;28;20027;-68
2021/08/09 01:34:22;;;;;;;4.50;2.05;;;13.20;90.20;;;;;;4954503;29;20032;-68
2021/08/09 01:36:52;;;;;;;2.75;2.17;;;13.20;90.10;;;;;;4958894;28;20146;-68
2021/08/09 01:39:18;;;;;;;2.65;2.20;;;13.10;90.10;;;;;;4974081;28;20061;-68
2021/08/09 01:41:44;;;;;;;4.93;2.40;;;13.10;90.10;;;;;;4962749;28;20566;-68
2021/08/09 01:44:13;;;;;;;3.00;2.03;;;13.00;90.10;;;;;;4969402;28;20027;-68
2021/08/09 01:46:40;;;;;;;3.95;2.13;;;12.90;90.20;;;;;;4961946;28;20431;-69
2021/08/09 01:51:34;;;;;;;5.53;2.25;;;12.80;90.30;;;;;;5002287;28;20038;-69
2021/08/09 01:54:01;;;;;;;4.97;2.30;;;12.80;90.40;;;;;;5011894;28;20466;-69
2021/08/09 01:56:27;;;;;;;3.08;2.05;;;12.70;90.30;;;;;;4995338;28;20034;-69
2021/08/09 01:58:54;;;;;;;2.78;1.90;;;12.70;90.30;;;;;;5028900;28;20149;-70
2021/08/09 02:01:20;;;;;;;4.82;2.20;;;12.70;90.40;;;;;;5017132;28;20485;-70
2021/08/09 02:03:47;;;;;;;7.72;2.05;;;12.70;90.40;;;;;;5011494;28;20116;-69
2021/08/09 02:06:13;;;;;;;3.75;1.85;;;12.60;90.50;;;;;;5008590;28;20188;-69
2021/08/09 02:08:39;;;;;;;2.85;2.22;;;12.60;90.60;;;;;;5011000;28;20558;-69
2021/08/09 02:11:17;;;;;;;3.78;2.15;;;12.60;90.60;;;;;;5012336;28;20018;-69
2021/08/09 02:13:50;;;;;;;3.13;2.08;;;12.60;90.60;;;;;;5012213;28;20026;-69
2021/08/09 02:16:22;;;;;;;2.03;1.80;;;12.60;90.60;;;;;;5011014;28;20044;-69
2021/08/09 02:18:58;;;;;;;2.60;1.87;;;12.60;90.60;;;;;;5011903;28;20669;-69
2021/08/09 02:21:28;;;;;;;2.33;1.98;;;12.60;90.60;;;;;;5012260;28;20033;-69
2021/08/09 02:23:59;;;;;;;2.10;1.85;;;12.60;90.50;;;;;;5012396;28;20136;-69
2021/08/09 02:26:34;;;;;;;3.30;1.92;;;12.60;90.50;;;;;;5023332;28;20025;-69
2021/08/09 02:29:10;;;;;;;2.67;2.25;;;12.70;90.50;;;;;;5031500;28;20018;-69
2021/08/09 02:31:39;;;;;;;2.95;1.90;;;12.60;90.50;;;;;;5017650;28;20025;-69
2021/08/09 02:34:06;;;;;;;4.90;2.03;;;12.60;90.40;;;;;;5015973;28;20026;-69
2021/08/09 02:36:32;;;;;;;3.20;2.30;;;12.60;90.40;;;;;;5030581;28;20479;-69
2021/08/09 02:38:59;;;;;;;3.20;2.20;;;12.60;90.40;;;;;;5022177;28;20040;-69
2021/08/09 02:41:25;;;;;;;2.17;1.98;;;12.60;90.40;;;;;;5011882;28;20026;-69
2021/08/09 02:43:51;;;;;;;2.28;1.92;;;12.60;90.60;;;;;;5013239;28;20030;-69
2021/08/09 02:46:18;;;;;;;3.70;1.90;;;12.60;90.50;;;;;;5010678;28;20030;-69
2021/08/09 02:48:47;;;;;;;4.65;2.00;;;12.60;90.50;;;;;;5009652;28;20065;-69
2021/08/09 02:51:13;;;;;;;1.92;1.83;;;12.60;90.60;;;;;;5008072;28;20037;-69
2021/08/09 02:53:39;;;;;;;2.90;1.80;;;12.60;90.50;;;;;;5011562;28;20022;-69
2021/08/09 02:56:06;;;;;;;2.70;2.00;;;12.50;90.50;;;;;;5010752;28;20517;-70
2021/08/09 02:58:32;;;;;;;2.22;2.00;;;12.60;90.60;;;;;;5011316;28;20083;-69
2021/08/09 03:00:58;;;;;;;3.17;2.13;;;12.60;90.60;;;;;;5011533;28;20433;-69
2021/08/09 03:03:28;;;;;;;3.83;1.75;;;12.50;90.50;;;;;;5023798;28;20030;-70
2021/08/09 03:05:56;;;;;;;3.85;1.90;;;12.50;90.50;;;;;;5008535;28;20026;-69
2021/08/09 03:08:23;;;;;;;2.72;2.08;;;12.50;90.50;;;;;;5010854;28;20025;-70
2021/08/09 03:10:49;;;;;;;4.38;2.72;;;12.50;90.60;;;;;;5011276;28;20465;-69
2021/08/09 03:13:20;;;;;;;5.25;2.78;;;12.40;90.70;;;;;;5011361;28;20029;-70
2021/08/09 03:15:46;;;;;;;4.18;2.70;;;12.40;90.80;;;;;;5010401;28;20022;-69
2021/08/09 03:18:11;;;;;;;3.25;2.47;;;12.40;90.80;;;;;;5010423;28;20508;-70
2021/08/09 03:20:37;;;;;;;6.88;3.05;;;12.40;90.80;;;;;;5010630;28;20037;-70
2021/08/09 03:23:02;;;;;;;5.45;3.40;;;12.40;90.80;;;;;;5023940;28;20124;-69
2021/08/09 03:25:28;;;;;;;6.78;2.90;;;12.30;90.80;;;;;;5011151;28;20034;-70
2021/08/09 03:27:54;;;;;;;3.65;2.55;;;12.30;90.90;;;;;;5011739;28;20042;-70
2021/08/09 03:30:20;;;;;;;4.85;2.63;;;12.30;90.90;;;;;;5010946;28;20018;-70
2021/08/09 03:32:46;;;;;;;5.00;2.65;;;12.30;91.00;;;;;;5010541;28;20032;-70
2021/08/09 03:35:12;;;;;;;3.03;2.58;;;12.30;90.90;;;;;;5009798;28;20068;-70
2021/08/09 03:37:37;;;;;;;3.67;2.72;;;12.30;90.90;;;;;;5010053;28;20038;-70
2021/08/09 03:40:05;;;;;;;3.10;2.53;;;12.30;90.90;;;;;;4992645;28;20041;-69
2021/08/09 03:42:30;;;;;;;8.95;2.85;;;12.20;90.90;;;;;;5022208;28;20116;-70
2021/08/09 03:44:56;;;;;;;3.70;2.90;;;12.20;90.90;;;;;;5029714;28;20109;-70
2021/08/09 03:47:21;;;;;;;3.92;2.90;;;12.20;90.90;;;;;;5016228;28;20037;-70
2021/08/09 03:49:47;;;;;;;4.55;2.50;;;12.10;90.90;;;;;;4990186;28;20037;-70
2021/08/09 03:52:13;;;;;;;6.22;2.90;;;12.10;91.00;;;;;;5013604;28;20183;-70
2021/08/09 03:54:39;;;;;;;4.18;2.58;;;12.10;91.00;;;;;;5011411;28;20025;-70
2021/08/09 03:57:04;;;;;;;3.10;2.75;;;12.10;91.00;;;;;;5010946;28;20482;-70
2021/08/09 03:59:30;;;;;;;3.85;2.47;;;12.10;91.10;;;;;;5011400;28;20029;-70
2021/08/09 04:01:55;;;;;;;3.58;2.47;;;12.10;91.10;;;;;;5030525;28;20525;-70
2021/08/09 04:04:21;;;;;;;4.47;2.60;;;12.10;91.10;;;;;;5024179;28;20018;-70
2021/08/09 04:06:46;;;;;;;4.40;2.10;;;12.10;91.10;;;;;;5009371;28;20084;-71
2021/08/09 04:09:12;;;;;;;2.22;1.63;;;12.10;91.10;;;;;;5010719;28;20044;-70
2021/08/09 04:11:38;;;;;;;2.88;1.75;;;12.00;91.10;;;;;;5002880;28;20081;-70
2021/08/09 04:14:04;;;;;;;2.88;1.90;;;12.00;91.10;;;;;;4997728;28;20022;-70
2021/08/09 04:16:30;;;;;;;4.90;1.88;;;12.00;91.10;;;;;;5009544;28;20053;-70
2021/08/09 04:18:56;;;;;;;1.92;1.70;;;12.00;91.10;;;;;;5010219;28;20054;-71
2021/08/09 04:21:21;;;;;;;4.53;2.13;;;12.00;91.00;;;;;;5010644;28;20046;-70
2021/08/09 04:23:48;;;;;;;3.92;1.95;;;12.00;91.00;;;;;;5010726;28;20527;-70
2021/08/09 04:26:15;;;;;;;1.98;1.83;;;12.00;91.00;;;;;;5010478;28;20037;-70
2021/08/09 04:28:42;;;;;;;4.32;1.98;;;12.00;91.00;;;;;;5013084;28;20106;-70
2021/08/09 04:31:08;;;;;;;2.53;2.30;;;12.00;91.10;;;;;;5011068;28;20049;-70
2021/08/09 04:33:43;;;;;;;5.00;2.10;;;12.00;91.00;;;;;;5015900;28;20067;-71
2021/08/09 04:36:09;;;;;;;2.08;1.88;;;11.90;91.00;;;;;;5032733;28;20410;-71
2021/08/09 04:38:35;;;;;;;2.45;1.80;;;11.90;91.00;;;;;;5014065;28;20025;-70
2021/08/09 04:41:03;;;;;;;3.95;2.17;;;11.90;91.10;;;;;;5014335;28;20363;-70
2021/08/09 04:43:29;;;;;;;3.78;2.17;;;11.90;91.10;;;;;;5026641;28;20018;-70
2021/08/09 04:45:55;;;;;;;3.50;1.92;;;11.90;91.10;;;;;;5013010;28;20040;-70
2021/08/09 04:48:20;;;;;;;3.45;1.92;;;11.90;91.10;;;;;;5019247;28;20022;-70
2021/08/09 04:50:46;;;;;;;3.25;2.40;;;11.90;91.10;;;;;;5011356;28;20049;-70
2021/08/09 04:53:12;;;;;;;2.60;2.03;;;12.00;91.20;;;;;;5012095;28;20026;-70
2021/08/09 04:55:37;;;;;;;3.85;2.33;;;12.00;91.20;;;;;;5007151;28;20028;-70
2021/08/09 04:58:04;;;;;;;3.63;2.55;;;12.00;91.20;;;;;;5013474;28;20026;-70
2021/08/09 05:00:30;;;;;;;2.42;2.10;;;12.00;91.30;;;;;;5026950;28;20036;-70
2021/08/09 05:02:55;;;;;;;3.72;2.40;;;12.10;91.30;;;;;;5003932;28;20678;-70
2021/08/09 05:05:21;;;;;;;4.60;2.45;;;12.10;91.30;;;;;;5015067;28;20052;-71
2021/08/09 05:07:48;;;;;;;2.63;2.40;;;12.20;91.40;;;;;;5001751;28;20457;-71
2021/08/09 05:10:14;;;;;;;3.03;2.30;;;12.20;91.40;;;;;;5012877;28;20073;-70
2021/08/09 05:12:40;;;;;;;5.50;2.58;;;12.20;91.40;;;;;;5019269;28;20021;-70
2021/08/09 05:15:07;;;;;;;10.27;3.00;;;12.20;91.40;;;;;;5030543;28;20021;-70
2021/08/09 05:17:33;;;;;;;4.82;3.40;;;12.20;91.50;;;;;;5010432;28;20140;-70
2021/08/09 05:19:59;;;;;;;5.32;3.13;;;12.30;91.50;;;;;;5013328;28;20030;-70
2021/08/09 05:22:25;;;;;;;6.40;3.15;;;12.30;91.60;;;;;;5015997;28;20040;-70
2021/08/09 05:24:50;;;;;;;7.72;3.10;;;12.30;91.60;;;;;;5012941;28;20106;-71
2021/08/09 05:27:16;;;;;;;6.50;3.25;;;12.30;91.60;;;;;;4995819;28;20029;-71
2021/08/09 05:29:41;;;;;;;4.85;3.15;;;12.40;91.50;;;;;;5013693;28;20367;-70
2021/08/09 05:32:07;;;;;;;4.47;3.08;;;12.30;91.50;;;;;;5008972;28;20034;-70
2021/08/09 05:34:34;;;;;;;3.30;3.00;;;12.40;91.60;;;;;;4992736;28;20085;-71
2021/08/09 05:37:00;;;;;;;4.97;2.90;;;12.30;91.50;;;;;;4991526;28;20156;-71
2021/08/09 05:39:25;;;;;;;7.63;3.10;;;12.30;91.60;;;;;;4993945;28;20105;-69
2021/08/09 05:41:51;;;;;;;2.80;2.60;;;12.40;91.70;;;;;;5003716;28;20079;-70
2021/08/09 05:44:16;;;;;;;3.70;2.60;;;12.40;91.70;;;;;;5011555;28;20037;-70
2021/08/09 05:46:43;;;;;;;4.07;2.40;;;12.50;91.70;;;;;;5011876;28;20033;-70
2021/08/09 05:49:08;;;;;;;4.65;2.42;;;12.50;91.70;;;;;;5012248;28;20029;-70
2021/08/09 05:51:38;;;;;;;3.05;2.33;;;12.60;91.80;;;;;;5012017;28;20033;-70
2021/08/09 05:54:03;;;;;;;3.60;2.30;;;12.60;91.70;;;;;;5011903;28;20371;-70
2021/08/09 05:56:29;;;;;;;2.80;2.35;;;12.70;91.80;;;;;;5029366;28;20033;-70
2021/08/09 05:58:54;;;;;;;4.85;2.25;;;12.70;91.80;;;;;;5013329;28;20025;-70
2021/08/09 06:01:20;;;;;;;4.03;1.80;;;12.80;91.80;;;;;;5000826;28;20029;-70
2021/08/09 06:03:46;;;;;;;7.18;2.30;;;12.80;91.80;;;;;;5008305;28;20104;-70
2021/08/09 06:06:18;;;;;;;5.68;2.22;;;12.90;91.80;;;;;;5013001;28;20029;-70
2021/08/09 06:08:45;;;;;;;6.43;2.53;;;12.90;91.80;;;;;;5016199;28;20382;-70
2021/08/09 06:11:11;;;;;;;4.55;2.22;;;13.00;91.70;;;;;;5013320;28;20026;-70
2021/08/09 06:13:37;;;;;;;4.63;2.05;;;13.00;91.70;;;;;;5009965;28;20032;-70
2021/08/09 06:16:02;;;;;;;2.42;2.20;;;13.00;91.70;;;;;;5016737;28;20093;-70
2021/08/09 06:18:31;;;;;;;4.82;1.80;;;13.00;91.50;;;;;;5014181;28;20137;-70
2021/08/09 06:20:56;;;;;;;3.38;2.08;;;13.10;91.60;;;;;;5016643;28;20026;-70
2021/08/09 06:23:22;;;;;;;2.22;1.83;;;13.10;91.60;;;;;;5022404;28;20072;-70
2021/08/09 06:25:47;;;;;;;3.10;1.80;;;13.10;91.70;;;;;;5016343;28;20038;-70
2021/08/09 06:28:13;;;;;;;4.25;1.90;;;13.20;91.60;;;;;;5011673;28;20101;-70
2021/08/09 06:30:39;;;;;;;2.95;1.90;;;13.30;91.60;;;;;;5014760;28;20026;-70
2021/08/09 06:33:04;;;;;;;2.83;2.05;;;13.30;91.60;;;;;;5012397;28;20113;-70
2021/08/09 06:35:31;;;;;;;5.18;1.80;;;13.40;91.60;;;;;;5020830;28;20033;-70
2021/08/09 06:37:56;;;;;;;3.05;1.70;;;13.50;91.60;;;;;;5014132;28;20404;-70
2021/08/09 06:40:22;;;;;;;3.38;1.70;;;13.60;91.50;;;;;;5019766;28;20032;-70
2021/08/09 06:42:48;;;;;;;2.72;1.83;;;13.70;91.50;;;;;;5004803;28;20372;-70
2021/08/09 06:45:13;;;;;;;1.77;1.40;;;13.70;91.50;;;;;;5015125;28;20514;-70
2021/08/09 06:47:39;;;;;;;2.50;1.25;;;13.80;91.50;;;;;;5011694;28;20047;-71
2021/08/09 06:50:05;;;;;;;3.08;1.50;;;13.90;91.50;;;;;;4995639;28;20470;-70
2021/08/09 06:52:34;;;;;;;3.15;1.60;;;14.00;91.50;;;;;;5011788;28;20120;-70
2021/08/09 06:54:59;;;;;;;3.95;1.67;;;14.00;91.60;;;;;;5019688;28;20022;-70
2021/08/09 06:57:25;;;;;;;1.83;1.20;;;14.20;91.50;;;;;;5017536;28;20386;-70
2021/08/09 06:59:50;;;;;;;2.25;1.20;;;14.30;91.50;;;;;;5019077;28;20103;-70
2021/08/09 07:02:16;;;;;;;2.50;1.40;;;14.40;91.40;;;;;;5011855;28;20093;-70
2021/08/09 07:04:41;;;;;;;1.52;1.23;;;14.50;91.30;;;;;;5016870;28;20057;-70
2021/08/09 07:07:07;;;;;;;6.53;1.00;;;14.60;91.20;;;;;;5029714;28;20064;-70
2021/08/09 07:09:33;;;;;;;1.00;0.90;;;14.80;91.10;;;;;;5028305;28;20029;-70
2021/08/09 07:11:58;;;;;;;2.90;1.10;;;15.00;90.90;;;;;;5015725;28;20030;-70
2021/08/09 07:14:24;;;;;;;2.30;1.02;;;15.20;90.80;;;;;;5011624;28;20029;-70
2021/08/09 07:16:50;;;;;;;2.67;0.95;;;15.40;90.80;;;;;;5017309;28;20022;-70
2021/08/09 07:19:16;;;;;;;2.45;0.90;;;15.60;90.40;;;;;;5017535;28;20096;-69
2021/08/09 07:21:41;;;;;;;1.52;0.95;;;15.90;90.50;;;;;;5019893;28;20502;-70
2021/08/09 07:24:07;;;;;;;1.30;0.80;;;16.30;90.00;;;;;;5025099;28;20090;-69
2021/08/09 07:26:33;;;;;;;1.95;0.80;;;16.70;89.30;;;;;;5029636;28;20033;-69
2021/08/09 07:28:59;;;;;;;1.98;1.00;;;17.20;88.30;;;;;;5026696;28;20017;-69
2021/08/09 07:31:25;;;;;;;2.22;0.98;;;17.50;87.80;;;;;;5025041;28;20029;-69
2021/08/09 07:33:50;;;;;;;1.20;0.80;;;17.80;87.00;;;;;;5018092;28;20022;-69
2021/08/09 07:36:16;;;;;;;4.32;1.10;;;18.00;86.40;;;;;;5011909;28;20034;-69
2021/08/09 07:38:42;;;;;;;1.95;1.00;;;18.00;85.60;;;;;;5029454;28;20080;-69
2021/08/09 07:41:07;;;;;;;3.00;1.00;;;18.00;85.20;;;;;;5012921;28;20104;-68
2021/08/09 07:43:33;;;;;;;4.57;0.80;;;18.20;84.60;;;;;;5010501;28;20041;-69
2021/08/09 07:45:59;;;;;;;1.00;0.90;;;18.40;84.00;;;;;;5015283;28;20548;-68
2021/08/09 07:48:24;;;;;;;0.95;0.70;;;18.30;83.80;;;;;;4983131;23;20054;-66
2021/08/09 07:50:50;;;;;;;2.50;0.90;;;18.70;83.20;;;;;;4955421;28;20030;-64
2021/08/09 07:53:16;;;;;;;2.90;0.90;;;18.70;82.90;;;;;;4965094;28;20046;-64
2021/08/09 07:55:41;;;;;;;1.00;0.90;;;18.70;83.00;;;;;;4945369;28;20024;-64
2021/08/09 07:58:07;;;;;;;1.20;0.70;;;19.00;82.90;;;;;;4953227;29;20043;-64
2021/08/09 08:00:33;;;;;;;1.00;0.70;;;19.50;82.10;;;;;;4952413;28;20035;-66
2021/08/09 08:03:00;;;;;;;1.08;0.70;;;19.90;81.30;;;;;;4953858;29;20519;-64
2021/08/09 08:05:26;;;;;;;1.80;0.88;;;20.60;79.50;;;;;;4947390;28;20031;-64
2021/08/09 08:07:51;;;;;;;2.22;0.80;;;21.00;77.80;;;;;;4957004;28;20081;-64
2021/08/09 08:10:17;;;;;;;2.95;0.70;;;21.40;76.70;;;;;;4956825;29;20059;-68
2021/08/09 08:12:42;;;;;;;2.28;0.82;;;21.80;75.90;;;;;;4956728;29;20476;-66
2021/08/09 08:15:08;;;;;;;3.90;1.00;;;22.30;74.80;;;;;;4956501;29;20027;-66
2021/08/09 08:17:34;;;;;;;2.13;1.00;;;22.80;73.80;;;;;;4956594;29;20039;-64
2021/08/09 08:20:00;;;;;;;1.77;0.73;;;23.30;72.40;;;;;;4955711;28;20034;-64
2021/08/09 08:22:26;;;;;;;1.38;0.77;;;23.60;71.30;;;;;;4955039;28;20491;-64
2021/08/09 08:24:51;;;;;;;1.75;0.70;;;24.10;69.30;;;;;;4955324;28;20104;-65
2021/08/09 08:27:17;;;;;;;1.50;0.80;;;24.30;68.00;;;;;;4956881;28;20337;-64
2021/08/09 08:29:42;;;;;;;0.93;0.57;;;24.40;66.90;;;;;;4957513;28;20023;-64
2021/08/09 08:32:08;;;;;;;2.17;0.77;;;24.60;67.30;;;;;;4956242;29;20132;-64
2021/08/09 08:34:35;;;;;;;1.85;1.02;;;25.10;65.90;;;;;;4955834;28;20038;-66
2021/08/09 08:37:00;;;;;;;2.25;1.05;;;25.40;64.10;;;;;;4956501;29;20034;-64
2021/08/09 08:39:26;;;;;;;2.30;0.70;;;25.60;62.80;;;;;;4956946;29;20082;-65
2021/08/09 08:41:53;;;;;;;1.15;0.60;;;25.40;62.70;;;;;;4955688;28;20106;-63
2021/08/09 08:44:19;;;;;;;1.67;0.80;;;25.60;62.30;;;;;;4957105;28;20043;-64
2021/08/09 08:46:46;;;;;;;1.35;0.85;;;25.80;60.90;;;;;;4962012;28;20031;-64
2021/08/09 08:49:15;;;;;;;1.02;0.60;;;26.00;60.90;;;;;;4956164;28;20634;-65
2021/08/09 08:51:46;;;;;;;1.88;0.65;;;26.20;59.50;;;;;;4956117;28;20030;-65
2021/08/09 08:54:12;;;;;;;1.42;0.60;;;26.50;59.50;;;;;;4956378;29;20108;-65
2021/08/09 08:56:40;;;;;;;1.75;0.80;;;26.80;59.20;;;;;;4955857;29;20110;-66
2021/08/09 08:59:07;;;;;;;3.58;1.08;;;26.80;58.30;;;;;;4956322;29;20063;-66
2021/08/09 09:01:38;;;;;;;1.02;0.60;;;26.90;57.20;;;;;;4955723;28;20023;-66
2021/08/09 09:04:27;;;;;;;2.80;0.80;;;26.90;56.50;;;;;;4955360;28;20055;-65
2021/08/09 09:07:04;;;;;;;1.65;0.88;;;27.10;57.20;;;;;;4953500;29;20023;-68
2021/08/09 09:09:32;;;;;;;1.35;0.85;;;27.40;56.70;;;;;;4955810;28;20154;-65
2021/08/09 09:12:03;;;;;;;1.90;0.70;;;27.70;57.20;;;;;;4955680;28;20031;-70
2021/08/09 09:14:30;;;;;;;1.33;0.70;;;28.00;56.40;;;;;;4955165;29;20027;-71
2021/08/09 09:16:57;;;;;;;1.65;0.70;;;28.20;55.30;;;;;;4953423;28;20054;-67
2021/08/09 09:19:35;;;;;;;1.88;0.65;;;28.50;54.90;;;;;;4953678;28;20513;-66
2021/08/09 09:22:20;;;;;;;2.42;0.50;;;28.40;55.20;;;;;;4951169;28;20028;-65
2021/08/09 09:24:49;;;;;;;1.50;0.63;;;28.40;53.90;;;;;;4962931;28;20035;-65
2021/08/09 09:27:35;;;;;;;1.05;0.60;;;28.30;54.30;;;;;;4955597;28;20035;-66
2021/08/09 09:30:26;;;;;;;2.00;0.70;;;28.30;53.60;;;;;;4955167;28;20738;-66
2021/08/09 09:32:58;;;;;;;0.65;0.60;;;28.40;54.10;;;;;;4955055;28;20062;-66
2021/08/09 09:35:24;;;;;;;1.05;0.50;;;28.50;54.00;;;;;;4953991;28;20026;-66
2021/08/09 09:37:51;;;;;;;2.70;0.85;;;28.40;53.30;;;;;;4954566;28;20024;-66
2021/08/09 09:40:19;;;;;;;1.77;0.60;;;28.00;52.60;;;;;;4955192;28;20040;-65
2021/08/09 09:42:46;;;;;;;0.80;0.50;;;27.90;52.70;;;;;;4966184;28;20058;-70
2021/08/09 09:45:28;;;;;;;1.17;0.60;;;27.70;51.90;;;;;;4956673;28;20031;-65
2021/08/09 09:48:00;;;;;;;;;;;27.60;51.50;;;;;;4953594;28;20039;-67
2021/08/09 09:50:25;;;;;;;3.33;0.75;;;27.60;54.70;;;;;;4952969;28;19972;-66
2021/08/09 09:52:51;;;;;;;4.88;0.80;;;27.40;54.70;;;;;;4954883;28;20270;-66
2021/08/09 09:55:16;;;;;;;4.93;0.57;;;27.30;53.40;;;;;;4953801;28;20045;-65
2021/08/09 09:57:44;;;;;;;2.00;0.52;;;27.20;53.10;;;;;;4954326;28;20027;-66
2021/08/09 10:00:15;;;;;;;1.98;0.60;;;27.30;53.10;;;;;;4953336;28;20175;-71
2021/08/09 10:02:48;;;;;;;2.53;0.80;;;27.40;52.90;;;;;;4955305;28;20031;-67
2021/08/09 10:05:15;;;;;;;2.97;0.63;;;27.20;53.10;;;;;;4953386;28;20028;-65
2021/08/09 10:07:42;;;;;;;1.52;0.50;;;26.90;52.10;;;;;;4953706;28;20110;-65
2021/08/09 10:10:09;;;;;;;1.08;0.50;;;26.80;52.00;;;;;;4954273;28;20031;-65
2021/08/09 10:12:37;;;;;;;2.33;0.52;;;26.50;52.40;;;;;;4953460;29;20042;-65
2021/08/09 10:15:04;;;;;;;1.48;0.40;;;26.40;51.80;;;;;;4953237;29;20034;-68
2021/08/09 10:17:31;;;;;;;3.67;0.60;;;26.20;51.60;;;;;;4953734;28;20066;-65
2021/08/09 10:20:03;;;;;;;1.80;0.50;;;26.00;52.60;;;;;;4953711;28;20027;-68
2021/08/09 10:22:29;;;;;;;0.52;0.40;;;25.90;52.10;;;;;;4961688;28;20459;-66
2021/08/09 10:24:56;;;;;;;1.17;0.40;;;25.90;51.80;;;;;;4960656;28;20063;-68
2021/08/09 10:27:46;;;;;;;2.67;0.40;;;25.80;52.10;;;;;;4953454;28;20078;-65
2021/08/09 10:30:22;;;;;;;0.75;0.50;;;25.70;51.90;;;;;;4951658;28;20090;-66
2021/08/09 10:32:50;;;;;;;1.33;0.60;;;25.70;52.30;;;;;;4954040;29;20023;-66
2021/08/09 10:35:40;;;;;;;1.02;0.50;;;25.80;53.60;;;;;;4945906;28;20027;-67
2021/08/09 10:38:17;;;;;;;1.13;0.50;;;26.00;52.70;;;;;;4940836;29;20071;-67
2021/08/09 10:40:44;;;;;;;3.10;0.70;;;26.10;52.00;;;;;;4953335;29;20019;-66
2021/08/09 10:43:10;;;;;;;0.57;0.50;;;26.20;52.00;;;;;;4951643;29;20027;-66
2021/08/09 10:45:52;;;;;;;1.58;0.73;;;26.20;52.20;;;;;;4952559;28;20102;-67
2021/08/09 10:48:44;;;;;;;0.95;0.43;;;26.40;51.80;;;;;;4952059;28;20035;-66
2021/08/09 10:51:09;;;;;;;1.38;0.60;;;26.30;50.40;;;;;;4949457;28;20512;-67
2021/08/09 10:53:35;;;;;;;0.50;0.40;;;26.00;51.20;;;;;;4952767;29;20075;-71
2021/08/09 10:56:02;;;;;;;1.05;0.60;;;26.00;51.00;;;;;;4951849;29;20376;-66
2021/08/09 10:58:52;;;;;;;2.88;0.80;;;25.90;49.70;;;;;;4952780;28;20027;-66
2021/08/09 11:01:19;;;;;;;1.67;0.63;;;25.50;49.40;;;;;;4934196;29;20027;-71
2021/08/09 11:04:00;;;;;;;0.50;0.50;;;25.30;50.40;;;;;;4938068;29;20027;-66
2021/08/09 11:06:54;;;;;;;2.83;0.40;;;25.40;50.90;;;;;;4951849;29;20024;-67
2021/08/09 11:09:32;;;;;;;2.28;0.80;;;25.40;50.40;;;;;;4951420;28;20027;-67
2021/08/09 11:12:09;;;;;;;4.60;0.80;;;25.30;50.10;;;;;;4952405;28;20043;-66
2021/08/09 11:15:07;;;;;;;0.98;0.60;;;25.20;50.30;;;;;;4951384;28;20023;-66
2021/08/09 11:17:44;;;;;;;4.72;0.93;;;25.30;51.10;;;;;;4951184;29;20031;-66
2021/08/09 11:20:13;;;;;;;1.02;0.60;;;25.40;51.20;;;;;;4952789;28;20110;-69
2021/08/09 11:22:40;;;;;;;0.60;0.50;;;25.40;51.00;;;;;;4958424;28;20153;-67
2021/08/09 11:25:57;;;;;;;1.42;0.60;;;25.40;51.40;;;;;;4963825;28;20058;-66
2021/08/09 11:28:25;;;;;;;1.48;0.70;;;25.60;52.00;;;;;;4885101;29;20122;-66
2021/08/09 11:31:03;;;;;;;0.95;0.60;;;25.60;51.60;;;;;;4933680;29;20400;-66
2021/08/09 11:33:31;;;;;;;1.58;0.95;;;25.40;50.70;;;;;;4951315;28;20114;-68
2021/08/09 11:36:04;;;;;;;0.73;0.45;;;25.10;51.20;;;;;;4952044;28;20364;-66
2021/08/09 11:38:42;;;;;;;2.75;0.63;;;25.00;51.70;;;;;;4951166;28;20050;-67
2021/08/09 11:41:13;;;;;;;3.28;0.75;;;25.00;52.20;;;;;;4952693;28;20027;-65
2021/08/09 11:43:39;;;;;;;1.92;0.63;;;25.10;52.60;;;;;;4951310;28;20035;-65
2021/08/09 11:46:11;;;;;;;3.50;0.65;;;25.20;52.00;;;;;;4950198;28;20491;-67
2021/08/09 11:48:50;;;;;;;0.90;0.60;;;25.40;52.30;;;;;;4951801;28;20030;-70
2021/08/09 11:51:24;;;;;;;0.80;0.50;;;25.50;51.70;;;;;;4950562;28;20027;-66
2021/08/09 11:53:53;;;;;;;1.85;1.10;;;25.40;50.80;;;;;;4952683;28;20051;-65
2021/08/09 11:56:44;;;;;;;1.98;0.68;;;25.20;51.30;;;;;;4951018;28;20484;-66
2021/08/09 11:59:19;;;;;;;2.50;0.68;;;25.20;51.50;;;;;;4952436;28;20031;-66
2021/08/09 12:01:47;;;;;;;3.25;1.88;;;25.00;52.50;;;;;;4952633;29;20070;-66
2021/08/09 12:04:21;;;;;;;0.90;0.63;;;24.90;53.10;;;;;;4952184;29;20019;-65
2021/08/09 12:06:49;;;;;;;2.22;0.68;;;24.80;52.40;;;;;;4951232;28;20034;-65
2021/08/09 12:09:17;;;;;;;5.05;3.78;;;24.70;52.20;;;;;;4952325;28;20038;-66
2021/08/09 12:11:43;;;;;;;4.50;0.85;;;24.70;52.90;;;;;;4971421;28;20530;-65
2021/08/09 12:14:14;;;;;;;2.88;1.00;;;24.80;52.70;;;;;;4960978;28;20106;-71
2021/08/09 12:17:00;;;;;;;0.82;0.60;;;24.80;52.30;;;;;;4949998;28;20027;-71
2021/08/09 12:19:36;;;;;;;2.53;0.80;;;24.80;51.80;;;;;;4950795;28;20031;-66
2021/08/09 12:22:20;;;;;;;2.50;0.65;;;24.80;52.30;;;;;;4958645;28;20065;-66
2021/08/09 12:25:03;;;;;;;0.80;0.70;;;24.80;51.90;;;;;;4946932;28;20035;-65
2021/08/09 12:27:30;;;;;;;2.13;0.75;;;24.80;51.90;;;;;;4951540;28;20082;-65
2021/08/09 12:29:59;;;;;;;2.42;0.80;;;24.70;52.30;;;;;;4952237;28;20035;-66
2021/08/09 12:32:27;;;;;;;1.75;0.68;;;24.60;52.20;;;;;;4952340;28;20024;-65
2021/08/09 12:34:52;;;;;;;1.95;0.80;;;24.60;52.80;;;;;;4950795;28;20038;-66
2021/08/09 12:37:18;;;;;;;0.77;0.60;;;24.70;52.70;;;;;;4951445;29;20031;-69
2021/08/09 12:39:44;;;;;;;3.65;0.77;;;24.60;52.70;;;;;;4952175;28;20019;-70
2021/08/09 12:42:18;;;;;;;1.33;0.90;;;24.60;53.20;;;;;;4951814;28;20031;-65
2021/08/09 12:44:45;;;;;;;1.48;0.77;;;24.60;52.80;;;;;;4951118;29;20027;-66
2021/08/09 12:47:11;;;;;;;0.85;0.47;;;24.60;52.90;;;;;;4951699;29;20024;-65
2021/08/09 12:49:37;;;;;;;1.40;0.80;;;24.60;52.80;;;;;;4950268;28;20043;-66
2021/08/09 12:52:03;;;;;;;1.77;0.70;;;24.70;53.00;;;;;;4952187;28;20030;-69
2021/08/09 12:54:30;;;;;;;1.92;0.70;;;24.80;52.60;;;;;;4955385;28;20118;-70
2021/08/09 12:56:56;;;;;;;1.77;0.57;;;24.80;53.10;;;;;;4953183;29;20024;-65
2021/08/09 12:59:22;;;;;;;4.45;0.70;;;25.00;53.00;;;;;;4955445;29;20071;-65